Hidden Valley, Valles Caldera, New Mexico Weather observations

Data are for 10 minute period ending at time listed.
 Day   Time   Solar   Ave.   Ave.  Ave.  Vector  Max.   Baro.   Total    
  of    of     Rad.   Air    Rel.  Wind   Wind   Wind  Press.  Precip.   
Year   Day            Temp.  Hum.  Speed  Dir.   Gust                    
2015   (MST)  Kw/m2    F      %     mph   deg.    mph    mb.     in.     
-------------------------------------------------------------------------
 215    4:30   100.00  99999.0   99999  99999.0   99999   99999.0   99999.0   99999.00 
 215    4:40   100.00  99999.0   99999  99999.0   99999   99999.0   99999.0   99999.00 
 215    4:50   100.00  99999.0   99999  99999.0   99999   99999.0   99999.0   99999.00 
 215    5:00   100.00  99999.0   99999  99999.0   99999   99999.0   99999.0   99999.00 
 215    5:10   100.00  99999.0   99999  99999.0   99999   99999.0   99999.0   99999.00 
 215    5:20   100.00  99999.0   99999  99999.0   99999   99999.0   99999.0   99999.00 
 215    5:30   0.01   45.9   100    0.1   148     0.7   750.8    0.00 
 215    5:40   0.01   46.4   100    0.5   135     0.9   750.9    0.00 
 215    5:50   0.04   46.9   100    0.0   253     0.6   750.9    0.00 
 215    6:00   0.04   47.1   100    0.1   249     0.6   750.9    0.00 
 215    6:10   0.07   47.3   100    0.1   227     0.5   750.9    0.00 
 215    6:20   0.08   47.4   100    0.0   293     0.5   751.1    0.00 
 215    6:30   0.10   47.7   100    0.3    80     0.8   751.1    0.00 
 215    6:40   0.14   48.1   100    0.2   317     1.0   751.2    0.00 
 215    6:50   0.20   48.4   100    0.6   109     1.1   751.1    0.00 
 215    7:00   0.18   49.0   100    0.5    68     0.9   751.2    0.00 
 215    7:10   0.22   49.4   100    0.7    37     1.4   751.1    0.00 
 215    7:20   0.31   50.7   100    0.6    23     1.4   751.1    0.00 
 215    7:30   0.27   51.6    99    0.5    23     1.3   751.2    0.00 
 215    7:40   0.41   52.1    97    0.5   110     1.3   751.2    0.00 
 215    7:50   0.48   54.3    92    0.6    83     1.2   751.2    0.00 
 215    8:00   0.51   55.9    85    0.6   294     1.3   751.2    0.00 
 215    8:10   0.54   58.4    82    0.8     9     1.6   751.3    0.00 
 215    8:20   0.57   60.5    74    0.7   334     1.6   751.3    0.00 
 215    8:30   0.61   61.9    71    0.8     2     2.1   751.3    0.00 
 215    8:40   0.64   62.7    66    0.7   156     1.6   751.2    0.00 
 215    8:50   0.67   63.1    65    1.1   112     2.7   751.1    0.00 
 215    9:00   0.71   63.6    65    1.0   101     3.4   751.1    0.00 
 215    9:10   0.75   64.2    65    1.2   171     2.6   751.2    0.00 
 215    9:20   0.78   64.9    61    1.4    29     2.9   751.2    0.00 
 215    9:30   0.82   65.3    62    1.5   261     7.5   751.2    0.00 
 215    9:40   0.84   65.4    60    1.5   330     5.0   751.1    0.00 
 215    9:50   0.86   66.5    55    1.2   185     3.0   751.2    0.00 
 215   10:00   0.89   67.0    57    1.5   116     3.2   751.2    0.00 
 215   10:10   0.89   67.2    57    2.7   189     5.0   751.1    0.00 
 215   10:20   0.91   67.5    58    2.8   216     4.9   751.1    0.00 
 215   10:30   0.72   67.2    55    2.3   199     5.3   751.1    0.00 
 215   10:40   0.60   65.9    56    2.6    77     5.1   751.2    0.00 
 215   10:50   0.94   67.7    53    2.1   314     5.2   751.2    0.00 
 215   11:00   0.56   67.0    50    1.5    36     4.5   751.2    0.00 
 215   11:10   0.57   67.2    50    3.0   296     6.7   751.1    0.00 
 215   11:20   1.08   67.9    49    1.9   228     5.7   751.2    0.00 
 215   11:30   1.11   69.3    46    2.3   204     4.2   751.1    0.00 
 215   11:40   1.10   69.9    47    2.5   243     7.8   751.1    0.00 
 215   11:50   0.62   69.1    48    1.9   320     5.9   751.2    0.00 
 215   12:00   0.29   66.9    54    3.2   348     5.6   751.2    0.00 
 215   12:10   0.24   66.0    54    2.9   351     5.0   751.3    0.00 
 215   12:20   0.73   67.1    55    2.9   359     5.6   751.2    0.00 
 215   12:30   0.29   67.8    50    2.9   340     4.7   751.2    0.00 
 215   12:40   0.49   66.4    49    2.1   342     5.7   751.2    0.00 
 215   12:50   1.12   70.1    45    3.0   356     5.6   751.1    0.00 
 215   13:00   0.35   68.6    41    3.1   354     5.9   751.1    0.00 
 215   13:10   0.57   68.6    39    2.5     6     5.2   751.0    0.00 
 215   13:20   1.07   70.8    39    2.9   342     5.9   751.0    0.00 
 215   13:30   1.12   71.9    41    3.2   319     7.3   750.9    0.00 
 215   13:40   1.00   71.5    41    2.8     5     6.2   750.9    0.00 
 215   13:50   0.62   70.5    40    2.8   318     6.2   750.8    0.00 
 215   14:00   1.01   70.5    40    2.6   280     5.6   750.8    0.00 
 215   14:10   1.02   71.4    39    3.0   332     5.8   750.8    0.00 
 215   14:20   0.82   71.2    40    2.5   260     5.7   750.7    0.00 
 215   14:30   0.68   70.1    42    2.4   334     4.3   750.6    0.00 
 215   14:40   0.86   71.3    39    3.0   345     6.6   750.5    0.00 
 215   14:50   0.87   72.5    36    1.9   320     5.4   750.4    0.00 
 215   15:00   0.66   71.4    34    3.1   266     6.3   750.4    0.00 
 215   15:10   0.68   70.5    37    2.1   352     4.9   750.3    0.00 
 215   15:20   0.58   71.3    38    2.4   342     5.3   750.2    0.00 
 215   15:30   0.57   70.4    42    3.7     1     6.1   750.1    0.00 
 215   15:40   0.16   67.7    43    3.1   345     6.0   750.1    0.00 
 215   15:50   0.17   67.1    43    2.8   338     4.5   750.0    0.00 
 215   16:00   0.19   67.0    44    1.7   340     2.9   750.0    0.00 
 215   16:10   0.55   69.1    42    2.0   345     3.9   749.9    0.00 
 215   16:20   0.69   72.5    37    2.9   352     5.7   749.8    0.00 
 215   16:30   0.59   72.1    36    2.4   315     5.3   749.7    0.00 
 215   16:40   0.54   71.6    39    2.9   333     7.5   749.7    0.00 
 215   16:50   0.48   71.1    37    2.9   333     7.4   749.7    0.00 
 215   17:00   0.40   71.4    37    1.5   320     4.2   749.7    0.00 
 215   17:10   0.39   70.6    39    2.0   267     3.6   749.6    0.00 
 215   17:20   0.43   71.0    40    1.9   242     6.0   749.5    0.00 
 215   17:30   0.30   71.6    38    1.5   326     3.6   749.6    0.00 
 215   17:40   0.23   69.3    40    2.1   318     4.5   749.6    0.00 
 215   17:50   0.25   69.1    40    2.3   320     4.4   749.7    0.00 
 215   18:00   0.17   68.0    43    2.4   347     4.7   749.7    0.00 
 215   18:10   0.07   66.4    46    1.8   318     4.3   749.9    0.00 
 215   18:20   0.05   64.8    53    0.8   268     2.0   750.0    0.00 
 215   18:30   0.04   63.8    55    0.9   317     2.4   750.1    0.00 
 215   18:40   0.02   62.7    57    1.0   246     1.9   750.1    0.00 
 215   18:50   0.02   62.4    56    0.9   273     1.8   750.2    0.00 
 215   19:00   0.01   62.1    56    1.6   275     4.0   750.3    0.00 
 215   19:10   0.01   61.0    61    1.3   252     2.1   750.4    0.00 
 215   19:20   0.00   58.9    66    0.9   247     1.6   750.4    0.00 
 215   19:30   0.00   58.4    66    1.1   240     2.0   750.5    0.00 
 215   19:40   0.00   56.8    71    0.3   199     1.8   750.5    0.00 
 215   19:50   0.00   55.9    74    0.7   269     1.9   750.6    0.00 
 215   20:00   0.00   53.8    81    0.3     2     1.0   750.7    0.00 
 215   20:10   0.00   52.7    85    0.2   334     0.9   750.8    0.00 
 215   20:20   0.00   50.9    86    0.3    54     1.7   750.9    0.00 
 215   20:30   0.00   49.9    89    0.7   293     1.8   751.0    0.00 
 215   20:40   0.00   49.9    90    0.4   132     1.0   751.1    0.00 
 215   20:50   0.00   48.9    91    0.2   310     0.6   751.3    0.00 
 215   21:00   0.00   49.1    96    0.6   211     1.7   751.3    0.00 
 215   21:10   0.00   50.5    88    1.2   216     3.2   751.2    0.00 
 215   21:20   0.00   52.8    78    2.2   249     3.7   751.2    0.00 
 215   21:30   0.00   56.4    64    2.4   242     4.6   751.2    0.00 
 215   21:40   0.00   58.9    57    1.8   221     3.6   751.1    0.00 
 215   21:50   0.00   56.1    64    1.3   234     2.9   751.2    0.00 
 215   22:00   0.00   53.2    72    1.0   327     2.1   751.3    0.00 
 215   22:10   0.00   52.5    77    0.7   184     1.3   751.3    0.00 
 215   22:20   0.00   50.9    80    0.8   164     1.3   751.3    0.00 
 215   22:30   0.00   49.6    85    0.9   231     1.8   751.3    0.00 
 215   22:40   0.00   50.6    81    0.9   189     2.4   751.2    0.00 
 215   22:50   0.00   50.3    79    0.9   104     1.6   751.3    0.00 
 215   23:00   0.00   48.1    85    0.6   250     1.4   751.4    0.00 
 215   23:10   0.00   47.1    90    0.2   191     0.7   751.4    0.00 
 215   23:20   0.00   46.6    91    0.4   169     1.4   751.4    0.00 
 215   23:30   0.00   44.7    91    0.5    30     1.2   751.5    0.00 
 215   23:40   0.00   43.3    92    0.3   144     0.9   751.4    0.00 
 215   23:50   0.00   43.1    93    0.3    51     0.9   751.4    0.00 
 216    0:00   0.00   43.2    94    0.2   326     0.6   751.4    0.00 
 216    0:10   0.00   43.4    95    0.1    54     0.6   751.5    0.00 
 216    0:20   0.00   41.9    95    0.2    44     0.6   751.6    0.00 
 216    0:30   0.00   41.8    97    0.2    99     0.8   751.6    0.00 
 216    0:40   0.00   41.7    98    0.2   340     0.7   751.6    0.00 
 216    0:50   0.00   40.6    97    0.4    13     0.9   751.6    0.00 
 216    1:00   0.00   39.6    97    0.3     7     1.0   751.6    0.00 
 216    1:10   0.00   39.5    98    0.2   339     0.8   751.6    0.00 
 216    1:20   0.00   39.7    98    0.1    68     0.5   751.6    0.00 
 216    1:30   0.00   39.2    99    0.5   172     1.1   751.5    0.00 
 216    1:40   0.00   40.0    99    0.1   145     0.7   751.4    0.00 
 216    1:50   0.00   39.2    99    0.4    52     1.4   751.4    0.00 
 216    2:00   0.00   39.0    99    0.4   343     1.5   751.4    0.00 
 216    2:10   0.00   38.3    99    0.4   112     1.0   751.4    0.00 
 216    2:20   0.00   38.5   100    0.3    63     0.6   751.4    0.00 
 216    2:30   0.00   38.0   100    0.1   327     0.6   751.4    0.00 
 216    2:40   0.00   37.9   100    0.1   326     0.5   751.4    0.00 
 216    2:50   0.00   38.1   100    0.0     0     0.0   751.4    0.00 
 216    3:00   0.00   38.4   100    0.0     0     0.0   751.4    0.00 
 216    3:10   0.00   38.1   100    0.5    15     1.1   751.5    0.00 
 216    3:20   0.00   37.2   100    0.3    24     0.9   751.5    0.00 
 216    3:30   0.00   37.5   100    0.0   315     0.3   751.6    0.00 
 216    3:40   0.00   37.3   100    0.2   332     1.0   751.6    0.00 
 216    3:50   0.00   37.1   100    0.6   357     1.5   751.6    0.00 
 216    4:00   0.00   36.8   100    0.4   340     0.9   751.7    0.00 
 216    4:10   0.00   37.4   100    0.5   208     1.2   751.7    0.00 
 216    4:20   0.00   37.8   100    0.4   102     1.3   751.7    0.00 

Return to Hidden Valley, Valles Caldera graphs page.


Western Regional Climate Center,wrcc@dri.edu